createdAt,value
2023-04-14T00:01:25.475Z,97858.38
2023-04-14T00:06:26.627Z,97851.19
2023-04-14T00:11:27.653Z,97849.14
2023-04-14T00:16:32.177Z,97843.86
2023-04-14T00:21:33.118Z,97843.21
2023-04-14T00:26:34.186Z,97840.33
2023-04-14T00:31:35.361Z,97839.45
2023-04-14T00:36:36.437Z,97826.46
2023-04-14T00:41:37.358Z,97821.45
2023-04-14T00:46:40.155Z,97812.56
2023-04-14T00:51:45.088Z,97805.17
2023-04-14T00:56:46.583Z,97791.44
2023-04-14T01:01:47.614Z,97803.16
2023-04-14T01:06:48.601Z,97804.66
2023-04-14T01:12:12.936Z,97799.20
2023-04-14T01:17:31.812Z,97796.14
2023-04-14T01:22:38.398Z,97798.35
2023-04-14T01:28:04.569Z,97802.02
2023-04-14T01:33:10.347Z,97806.66
2023-04-14T01:38:18.528Z,97803.36
2023-04-14T01:43:26.395Z,97805.02
2023-04-14T01:48:28.366Z,97806.10
2023-04-14T01:53:32.042Z,97802.16
2023-04-14T01:58:35.576Z,97793.58
2023-04-14T02:03:38.129Z,97792.39
2023-04-14T02:08:41.522Z,97786.92
2023-04-14T02:13:43.096Z,97778.73
2023-04-14T02:18:45.671Z,97770.05
2023-04-14T02:23:46.732Z,97767.77
2023-04-14T02:29:06.194Z,97767.48
2023-04-14T02:34:10.572Z,97762.48
2023-04-14T02:39:17.043Z,97758.11
2023-04-14T02:44:21.931Z,97754.73
2023-04-14T02:49:24.278Z,97750.52
2023-04-14T02:54:26.531Z,97748.34
2023-04-14T02:59:29.308Z,97743.42
2023-04-14T03:04:37.493Z,97740.52
2023-04-14T03:09:42.050Z,97739.01
2023-04-14T03:14:44.027Z,97741.61
2023-04-14T03:19:47.825Z,97744.52
2023-04-14T03:24:50.188Z,97741.45
2023-04-14T03:29:54.709Z,97742.13
2023-04-14T03:34:58.180Z,97741.14
2023-04-14T03:40:05.027Z,97733.81
2023-04-14T03:45:07.452Z,97730.38
2023-04-14T03:50:10.686Z,97726.98
2023-04-14T03:55:15.052Z,97726.46
2023-04-14T04:00:19.271Z,97724.27
2023-04-14T04:05:21.449Z,97722.92
2023-04-14T04:10:23.096Z,97722.09
2023-04-14T04:15:28.242Z,97724.65
2023-04-14T04:20:31.864Z,97718.52
2023-04-14T04:25:36.610Z,97732.16
2023-04-14T04:30:46.616Z,97714.60
2023-04-14T04:35:48.524Z,97709.48
2023-04-14T04:40:50.074Z,97700.30
2023-04-14T04:45:58.553Z,97705.75
2023-04-14T04:51:00.066Z,97710.52
2023-04-14T04:56:01.761Z,97706.92
2023-04-14T05:01:09.813Z,97706.92
2023-04-14T05:06:11.702Z,97707.23
2023-04-14T05:11:12.851Z,97705.15
2023-04-14T05:16:14.486Z,97705.64
2023-04-14T05:21:15.456Z,97695.56
2023-04-14T05:26:39.030Z,97686.50
2023-04-14T05:31:37.352Z,97680.63
2023-04-14T05:36:38.326Z,97671.21
2023-04-14T05:41:39.268Z,97663.14
2023-04-14T05:46:40.720Z,97654.89
2023-04-14T05:51:42.168Z,97642.41
2023-04-14T05:56:43.140Z,97630.20
2023-04-14T06:01:44.336Z,97640.47
2023-04-14T06:06:45.480Z,97645.88
2023-04-14T06:11:46.433Z,97645.07
2023-04-14T06:16:47.549Z,97641.14
2023-04-14T06:21:48.673Z,97628.30
2023-04-14T06:26:49.714Z,97627.23
2023-04-14T06:31:51.262Z,97619.06
2023-04-14T06:36:52.442Z,97620.27
2023-04-14T06:41:53.577Z,97598.20
2023-04-14T06:46:56.344Z,97626.79
2023-04-14T06:51:58.783Z,97615.98
2023-04-14T06:57:01.291Z,97615.34
2023-04-14T07:02:02.920Z,97589.67
2023-04-14T07:07:04.189Z,97605.90
2023-04-14T07:12:05.441Z,97587.02
2023-04-14T07:17:06.451Z,97573.86
2023-04-14T07:22:08.318Z,97568.60
2023-04-14T07:27:18.718Z,97573.23
2023-04-14T07:32:19.691Z,97570.48
2023-04-14T07:37:20.947Z,97583.64
2023-04-14T07:42:21.927Z,97598.42
2023-04-14T07:47:23.001Z,97601.00
2023-04-14T07:52:24.039Z,97605.35
2023-04-14T07:57:24.980Z,97604.60
2023-04-14T08:02:26.521Z,97602.77
2023-04-14T08:07:27.951Z,97605.36
2023-04-14T08:12:29.050Z,97599.63
2023-04-14T08:17:30.550Z,97583.02
2023-04-14T08:22:31.665Z,97586.46
2023-04-14T08:27:32.671Z,97588.80
2023-04-14T08:32:33.646Z,97585.85
2023-04-14T08:37:34.874Z,97578.38
2023-04-14T08:42:35.819Z,97579.88
2023-04-14T08:47:39.146Z,97579.93
2023-04-14T08:52:40.938Z,97572.95
2023-04-14T08:57:43.396Z,97571.80
2023-04-14T09:02:46.385Z,97571.38
2023-04-14T09:07:47.445Z,97578.23
2023-04-14T09:12:49.346Z,97582.70
2023-04-14T09:17:50.544Z,97581.70
2023-04-14T09:22:52.752Z,97574.55
2023-04-14T09:27:54.101Z,97566.80
2023-04-14T09:32:56.209Z,97556.59
2023-04-14T09:37:57.166Z,97546.95
2023-04-14T09:42:59.996Z,97543.34
2023-04-14T09:48:07.514Z,97535.72
2023-04-14T09:53:08.605Z,97525.62
2023-04-14T09:58:09.996Z,97516.02
2023-04-14T10:03:11.141Z,97510.63
2023-04-14T10:08:12.821Z,97499.20
2023-04-14T10:13:15.303Z,97493.80
2023-04-14T10:18:16.881Z,97491.34
2023-04-14T10:23:18.026Z,97490.30
2023-04-14T10:28:19.343Z,97484.75
2023-04-14T10:33:20.932Z,97485.06
2023-04-14T10:38:22.319Z,97475.67
2023-04-14T10:43:27.411Z,97465.62
2023-04-14T10:48:40.523Z,97458.84
2023-04-14T10:53:46.814Z,97453.92
2023-04-14T10:58:58.316Z,97454.87
2023-04-14T11:04:18.786Z,97450.95
2023-04-14T11:09:31.360Z,97443.21
2023-04-14T11:14:35.178Z,97439.55
2023-04-14T11:19:36.179Z,97426.17
2023-04-14T11:24:38.011Z,97426.39
2023-04-14T11:29:39.150Z,97425.77
2023-04-14T11:34:40.349Z,97424.64
2023-04-14T11:39:41.429Z,97412.08
2023-04-14T11:44:42.402Z,97407.67
2023-04-14T11:49:43.354Z,97406.00
2023-04-14T11:54:44.489Z,97404.59
2023-04-14T11:59:46.970Z,97401.98
2023-04-14T12:04:50.639Z,97398.61
2023-04-14T12:09:52.054Z,97391.52
2023-04-14T12:14:53.199Z,97382.92
2023-04-14T12:19:54.263Z,97373.70
2023-04-14T12:24:56.377Z,97371.17
2023-04-14T12:29:57.782Z,97358.05
2023-04-14T12:35:00.669Z,97360.50
2023-04-14T12:40:05.707Z,97345.23
2023-04-14T12:45:07.665Z,97330.36
2023-04-14T12:50:27.352Z,97316.71
2023-04-14T12:55:30.864Z,97320.79
2023-04-14T13:00:31.883Z,97309.79
2023-04-14T13:05:33.000Z,97293.64
2023-04-14T13:10:33.960Z,97290.17
2023-04-14T13:16:14.501Z,97294.52
2023-04-14T13:20:56.895Z,97296.39
2023-04-14T13:25:58.812Z,97298.73
2023-04-14T13:31:00.317Z,97308.03
2023-04-14T13:36:02.393Z,97298.04
2023-04-14T13:41:03.730Z,97302.04
2023-04-14T13:46:04.735Z,97298.54
2023-04-14T13:51:05.782Z,97296.39
2023-04-14T13:56:06.807Z,97296.87
2023-04-14T14:01:10.069Z,97285.95
2023-04-14T14:06:13.474Z,97291.30
2023-04-14T14:11:14.900Z,97287.39
2023-04-14T14:16:33.230Z,97285.94
2023-04-14T14:21:37.572Z,97292.45
2023-04-14T14:26:38.631Z,97291.86
2023-04-14T14:31:39.672Z,97291.34
2023-04-14T14:36:40.802Z,97292.47
2023-04-14T14:41:41.855Z,97287.79
2023-04-14T14:46:45.152Z,97299.21
2023-04-14T14:51:46.315Z,97304.53
2023-04-14T14:56:47.226Z,97304.39
2023-04-14T15:01:48.277Z,97310.54
2023-04-14T15:06:49.622Z,97307.83
2023-04-14T15:11:50.697Z,97308.58
2023-04-14T15:16:52.613Z,97313.88
2023-04-14T15:21:53.954Z,97317.98
2023-04-14T15:26:55.423Z,97317.05
2023-04-14T15:31:56.417Z,97324.39
2023-04-14T15:36:57.830Z,97316.03
2023-04-14T15:41:58.786Z,97322.92
2023-04-14T15:47:01.612Z,97326.25
2023-04-14T15:52:02.621Z,97329.81
2023-04-14T15:57:04.045Z,97333.95
2023-04-14T16:02:05.330Z,97342.89
2023-04-14T16:07:06.340Z,97344.36
2023-04-14T16:12:13.725Z,97347.92
2023-04-14T16:17:14.683Z,97351.83
2023-04-14T16:22:15.841Z,97352.26
2023-04-14T16:27:17.068Z,97345.45
2023-04-14T16:32:18.205Z,97342.84
2023-04-14T16:37:20.121Z,97353.58
2023-04-14T16:42:25.516Z,97359.38
2023-04-14T16:47:27.823Z,97362.41
2023-04-14T16:52:29.890Z,97376.02
2023-04-14T16:57:31.856Z,97381.66
2023-04-14T17:02:32.912Z,97379.32
2023-04-14T17:07:34.071Z,97380.14
2023-04-14T17:12:35.074Z,97379.98
2023-04-14T17:17:36.123Z,97369.44
2023-04-14T17:22:37.471Z,97363.45
2023-04-14T17:27:38.504Z,97369.64
2023-04-14T17:32:40.996Z,97368.44
2023-04-14T17:37:42.086Z,97350.01
2023-04-14T17:42:43.262Z,97362.70
2023-04-14T17:47:44.204Z,97355.86
2023-04-14T17:52:45.794Z,97353.06
2023-04-14T17:57:48.718Z,97357.17
2023-04-14T18:02:49.717Z,97352.01
2023-04-14T18:07:51.050Z,97353.41
2023-04-14T18:12:52.120Z,97351.77
2023-04-14T18:18:03.066Z,97356.16
2023-04-14T18:23:04.812Z,97356.79
2023-04-14T18:28:05.878Z,97358.42
2023-04-14T18:33:06.928Z,97351.65
2023-04-14T18:38:08.228Z,97347.47
2023-04-14T18:43:09.153Z,97345.51
2023-04-14T18:48:10.137Z,97341.65
2023-04-14T18:53:11.938Z,97343.40
2023-04-14T18:58:12.987Z,97337.38
2023-04-14T19:03:14.715Z,97331.48
2023-04-14T19:08:16.271Z,97322.23
2023-04-14T19:13:17.413Z,97318.00
2023-04-14T19:18:19.814Z,97321.31
2023-04-14T19:23:21.108Z,97320.04
2023-04-14T19:28:22.680Z,97320.02
2023-04-14T19:33:25.066Z,97327.19
2023-04-14T19:38:27.905Z,97325.20
2023-04-14T19:43:28.845Z,97321.52
2023-04-14T19:48:33.946Z,97323.50
2023-04-14T19:53:34.874Z,97312.20
2023-04-14T19:58:35.940Z,97306.06
2023-04-14T20:03:37.222Z,97304.70
2023-04-14T20:08:38.220Z,97300.61
2023-04-14T20:13:39.123Z,97296.73
2023-04-14T20:18:44.423Z,97298.38
2023-04-14T20:23:45.497Z,97282.17
2023-04-14T20:28:46.881Z,97322.35
2023-04-14T20:33:47.912Z,97326.14
2023-04-14T20:38:48.851Z,97300.73
2023-04-14T20:43:49.839Z,97316.77
2023-04-14T20:48:50.920Z,97307.27
2023-04-14T20:53:51.887Z,97298.67
2023-04-14T20:58:52.829Z,97313.35
2023-04-14T21:03:54.081Z,97319.06
2023-04-14T21:08:55.515Z,97335.21
2023-04-14T21:15:40.642Z,97347.39
2023-04-14T21:19:26.620Z,97354.04
2023-04-14T21:24:28.248Z,97358.14
2023-04-14T21:29:29.202Z,97355.63
2023-04-14T21:34:31.162Z,97365.29
2023-04-14T21:39:32.918Z,97364.85
2023-04-14T21:44:34.487Z,97360.67
2023-04-14T21:49:37.681Z,97374.45
2023-04-14T21:54:58.756Z,97380.22
2023-04-14T21:59:59.682Z,97384.98
2023-04-14T22:05:00.592Z,97384.16
2023-04-14T22:10:02.771Z,97388.64
2023-04-14T22:15:05.740Z,97391.96
2023-04-14T22:20:07.559Z,97406.83
2023-04-14T22:25:09.010Z,97415.03
2023-04-14T22:30:10.952Z,97413.83
2023-04-14T22:35:30.009Z,97412.77
2023-04-14T22:40:40.047Z,97421.17
2023-04-14T22:45:45.664Z,97425.33
2023-04-14T22:50:46.889Z,97431.93
2023-04-14T22:55:47.871Z,97445.48
2023-04-14T23:00:48.829Z,97452.85
2023-04-14T23:05:51.040Z,97466.46
2023-04-14T23:10:56.832Z,97465.71
2023-04-14T23:16:05.182Z,97466.45
2023-04-14T23:21:06.155Z,97477.86
2023-04-14T23:26:07.460Z,97475.22
2023-04-14T23:31:08.560Z,97471.72
2023-04-14T23:36:09.501Z,97481.50
2023-04-14T23:41:11.332Z,97483.45
2023-04-14T23:46:32.397Z,97494.25
2023-04-14T23:51:35.278Z,97508.20
2023-04-14T23:56:36.190Z,97515.23
